createdAt,value
2022-08-25T00:00:31.485Z,2.75
2022-08-25T00:03:02.072Z,3.05
2022-08-25T00:05:33.635Z,2.40
2022-08-25T00:08:03.700Z,1.70
2022-08-25T00:10:35.911Z,2.60
2022-08-25T00:13:06.983Z,2.72
2022-08-25T00:15:36.210Z,2.78
2022-08-25T00:18:14.776Z,2.15
2022-08-25T00:20:48.987Z,3.22
2022-08-25T00:23:20.265Z,2.90
2022-08-25T00:25:51.350Z,3.15
2022-08-25T00:28:22.199Z,1.85
2022-08-25T00:30:50.414Z,3.15
2022-08-25T00:33:18.653Z,2.30
2022-08-25T00:35:47.712Z,2.55
2022-08-25T00:38:17.817Z,2.78
2022-08-25T00:40:46.377Z,3.13
2022-08-25T00:43:13.938Z,2.88
2022-08-25T00:45:44.484Z,4.20
2022-08-25T00:48:13.508Z,2.45
2022-08-25T00:50:40.941Z,2.65
2022-08-25T00:53:12.591Z,2.72
2022-08-25T00:55:44.224Z,3.22
2022-08-25T00:58:20.227Z,2.90
2022-08-25T01:00:54.190Z,1.95
2022-08-25T01:03:35.918Z,2.75
2022-08-25T01:06:09.324Z,2.35
2022-08-25T01:11:10.416Z,3.40
2022-08-25T01:13:45.559Z,2.90
2022-08-25T01:16:15.224Z,2.45
2022-08-25T01:18:57.756Z,3.85
2022-08-25T01:21:28.176Z,3.08
2022-08-25T01:23:58.461Z,2.53
2022-08-25T01:26:34.684Z,2.90
2022-08-25T01:29:22.320Z,2.45
2022-08-25T01:31:52.942Z,2.92
2022-08-25T01:34:25.936Z,2.67
2022-08-25T01:36:54.385Z,2.50
2022-08-25T01:39:28.799Z,3.42
2022-08-25T01:42:11.583Z,2.95
2022-08-25T01:44:42.700Z,2.53
2022-08-25T01:47:14.022Z,3.08
2022-08-25T01:49:47.683Z,2.47
2022-08-25T01:52:27.862Z,2.67
2022-08-25T01:55:01.080Z,3.78
2022-08-25T02:00:00.207Z,2.60
2022-08-25T02:02:31.778Z,3.15
2022-08-25T02:05:03.626Z,2.97
2022-08-25T02:07:36.251Z,2.58
2022-08-25T02:10:10.573Z,3.38
2022-08-25T02:12:38.813Z,4.25
2022-08-25T02:15:08.105Z,2.78
2022-08-25T02:17:39.475Z,1.40
2022-08-25T02:20:10.311Z,2.25
2022-08-25T02:22:40.622Z,2.25
2022-08-25T02:25:12.866Z,3.47
2022-08-25T02:27:44.415Z,2.40
2022-08-25T02:30:15.422Z,2.70
2022-08-25T02:32:45.922Z,3.20
2022-08-25T02:35:19.269Z,3.42
2022-08-25T02:40:22.638Z,2.58
2022-08-25T02:42:51.447Z,2.28
2022-08-25T02:45:22.456Z,4.80
2022-08-25T02:47:53.455Z,4.60
2022-08-25T02:50:27.370Z,2.72
2022-08-25T02:52:58.044Z,3.28
2022-08-25T02:55:28.790Z,4.10
2022-08-25T02:57:59.203Z,2.45
2022-08-25T03:00:30.433Z,2.95
2022-08-25T03:03:00.428Z,2.90
2022-08-25T03:05:30.523Z,3.97
2022-08-25T03:08:02.470Z,2.05
2022-08-25T03:10:32.849Z,3.25
2022-08-25T03:13:00.721Z,3.28
2022-08-25T03:15:31.049Z,2.72
2022-08-25T03:18:02.303Z,2.80
2022-08-25T03:20:35.651Z,3.77
2022-08-25T03:23:06.926Z,3.92
2022-08-25T03:25:52.846Z,2.05
2022-08-25T03:28:30.014Z,3.72
2022-08-25T03:31:00.350Z,2.92
2022-08-25T03:33:32.122Z,2.13
2022-08-25T03:35:59.679Z,3.53
2022-08-25T03:38:30.502Z,3.17
2022-08-25T03:40:58.322Z,2.90
2022-08-25T03:43:31.882Z,2.92
2022-08-25T03:46:02.229Z,3.03
2022-08-25T03:48:36.544Z,2.42
2022-08-25T03:51:06.584Z,2.80
2022-08-25T03:53:41.329Z,2.60
2022-08-25T03:56:12.476Z,3.65
2022-08-25T03:58:43.107Z,4.15
2022-08-25T04:01:11.493Z,4.07
2022-08-25T04:03:39.550Z,3.72
2022-08-25T04:06:13.475Z,3.20
2022-08-25T04:08:41.394Z,3.47
2022-08-25T04:11:11.815Z,4.18
2022-08-25T04:13:39.846Z,2.40
2022-08-25T04:16:12.994Z,2.80
2022-08-25T04:18:50.553Z,2.58
2022-08-25T04:21:20.488Z,3.67
2022-08-25T04:23:49.266Z,2.97
2022-08-25T04:26:28.136Z,3.38
2022-08-25T04:28:58.723Z,4.03
2022-08-25T04:31:30.892Z,3.17
2022-08-25T04:34:14.818Z,3.15
2022-08-25T04:36:54.477Z,3.50
2022-08-25T04:39:24.184Z,2.55
2022-08-25T04:42:06.735Z,2.80
2022-08-25T04:44:34.746Z,2.17
2022-08-25T04:47:06.410Z,3.50
2022-08-25T04:49:40.015Z,3.80
2022-08-25T04:52:14.458Z,3.10
2022-08-25T04:54:46.373Z,2.95
2022-08-25T04:57:14.042Z,2.22
2022-08-25T04:59:47.360Z,3.25
2022-08-25T05:04:50.517Z,2.80
2022-08-25T05:07:18.657Z,2.80
2022-08-25T05:09:55.053Z,4.82
2022-08-25T05:12:22.708Z,4.07
2022-08-25T05:14:53.658Z,2.97
2022-08-25T05:17:28.027Z,4.07
2022-08-25T05:19:58.667Z,3.22
2022-08-25T05:22:28.725Z,3.00
2022-08-25T05:24:56.153Z,2.58
2022-08-25T05:27:23.726Z,2.53
2022-08-25T05:29:56.904Z,2.80
2022-08-25T05:32:29.543Z,4.80
2022-08-25T05:34:59.900Z,3.67
2022-08-25T05:37:31.238Z,2.83
2022-08-25T05:40:02.037Z,3.08
2022-08-25T05:42:29.715Z,2.55
2022-08-25T05:45:00.160Z,2.72
2022-08-25T05:47:30.333Z,2.58
2022-08-25T05:50:01.864Z,4.30
2022-08-25T05:52:30.039Z,3.08
2022-08-25T05:55:00.642Z,3.85
2022-08-25T05:57:29.415Z,3.20
2022-08-25T06:00:08.446Z,4.70
2022-08-25T06:02:44.087Z,5.63
2022-08-25T06:05:21.621Z,5.93
2022-08-25T06:07:54.647Z,5.00
2022-08-25T06:10:27.574Z,6.80
2022-08-25T06:13:00.967Z,9.00
2022-08-25T06:15:29.107Z,8.10
2022-08-25T06:18:01.669Z,15.02
2022-08-25T06:22:59.246Z,6.78
2022-08-25T06:25:33.950Z,8.77
2022-08-25T06:28:08.407Z,7.95
2022-08-25T06:30:45.979Z,8.30
2022-08-25T06:33:21.379Z,7.93
2022-08-25T06:36:04.041Z,6.30
2022-08-25T06:38:41.588Z,6.43
2022-08-25T06:41:17.024Z,7.00
2022-08-25T06:44:04.857Z,7.95
2022-08-25T06:46:42.543Z,7.15
2022-08-25T06:49:16.553Z,10.02
2022-08-25T06:51:44.594Z,6.78
2022-08-25T06:54:15.823Z,7.97
2022-08-25T06:56:49.662Z,6.00
2022-08-25T06:59:32.252Z,7.80
2022-08-25T07:02:03.179Z,6.97
2022-08-25T07:04:33.934Z,7.70
2022-08-25T07:07:08.840Z,7.55
2022-08-25T07:09:40.817Z,5.45
2022-08-25T07:12:12.462Z,7.50
2022-08-25T07:14:58.180Z,7.60
2022-08-25T07:17:36.745Z,6.25
2022-08-25T07:20:09.001Z,5.93
2022-08-25T07:22:44.787Z,6.43
2022-08-25T07:25:19.697Z,6.82
2022-08-25T07:28:04.035Z,5.80
2022-08-25T07:30:37.762Z,7.35
2022-08-25T07:33:09.408Z,5.85
2022-08-25T07:35:39.018Z,3.97
2022-08-25T07:40:59.034Z,5.95
2022-08-25T07:43:32.411Z,5.80
2022-08-25T07:46:07.470Z,4.95
2022-08-25T07:48:36.900Z,5.95
2022-08-25T07:51:15.635Z,7.03
2022-08-25T07:53:52.190Z,6.10
2022-08-25T07:56:21.201Z,5.40
2022-08-25T07:58:57.329Z,7.03
2022-08-25T08:01:26.223Z,5.05
2022-08-25T08:04:01.570Z,5.32
2022-08-25T08:06:37.902Z,6.53
2022-08-25T08:09:09.815Z,5.40
2022-08-25T08:11:53.672Z,5.60
2022-08-25T08:14:27.859Z,9.05
2022-08-25T08:16:58.903Z,5.88
2022-08-25T08:19:26.981Z,4.22
2022-08-25T08:21:58.112Z,4.43
2022-08-25T08:24:44.104Z,5.53
2022-08-25T08:27:17.496Z,5.22
2022-08-25T08:29:53.842Z,6.55
2022-08-25T08:32:32.439Z,7.03
2022-08-25T08:35:25.885Z,5.30
2022-08-25T08:38:00.332Z,4.35
2022-08-25T08:40:41.469Z,5.47
2022-08-25T08:43:18.966Z,4.93
2022-08-25T08:45:53.839Z,4.05
2022-08-25T08:48:43.694Z,4.93
2022-08-25T08:51:25.406Z,5.88
2022-08-25T08:54:25.241Z,5.47
2022-08-25T08:57:17.834Z,5.78
2022-08-25T08:59:52.048Z,5.30
2022-08-25T09:02:51.596Z,6.75
2022-08-25T09:05:26.803Z,4.90
2022-08-25T09:07:59.826Z,4.70
2022-08-25T09:10:40.833Z,3.88
2022-08-25T09:13:16.219Z,4.45
2022-08-25T09:16:43.135Z,4.55
2022-08-25T09:19:41.891Z,5.45
2022-08-25T09:22:35.317Z,3.95
2022-08-25T09:25:52.559Z,3.67
2022-08-25T09:28:31.828Z,5.32
2022-08-25T09:31:20.723Z,7.70
2022-08-25T09:33:58.992Z,4.03
2022-08-25T09:36:37.557Z,4.60
2022-08-25T09:39:14.857Z,5.97
2022-08-25T09:41:51.456Z,4.88
2022-08-25T09:44:41.620Z,4.72
2022-08-25T09:47:29.770Z,3.33
2022-08-25T09:50:04.612Z,4.80
2022-08-25T09:52:35.841Z,5.15
2022-08-25T09:55:13.349Z,5.65
2022-08-25T09:57:58.538Z,4.35
2022-08-25T10:00:30.805Z,3.63
2022-08-25T10:03:24.823Z,5.32
2022-08-25T10:05:59.094Z,4.13
2022-08-25T10:08:53.038Z,5.28
2022-08-25T10:14:26.756Z,3.83
2022-08-25T10:17:30.942Z,3.97
2022-08-25T10:20:30.879Z,2.70
2022-08-25T10:23:15.256Z,4.07
2022-08-25T10:25:58.970Z,5.05
2022-08-25T10:28:55.839Z,5.25
2022-08-25T10:31:44.518Z,3.92
2022-08-25T10:34:27.705Z,6.70
2022-08-25T10:37:13.779Z,3.95
2022-08-25T10:40:14.311Z,4.20
2022-08-25T10:43:10.103Z,5.25
2022-08-25T10:46:04.899Z,4.13
2022-08-25T10:48:53.486Z,4.07
2022-08-25T10:51:37.598Z,4.88
2022-08-25T10:54:24.178Z,4.90
2022-08-25T10:57:55.894Z,3.67
2022-08-25T11:00:38.101Z,4.40
2022-08-25T11:03:44.964Z,3.17
2022-08-25T11:06:41.665Z,4.68
2022-08-25T11:09:18.907Z,10.38
2022-08-25T11:12:32.139Z,4.25
2022-08-25T11:15:22.060Z,4.88
2022-08-25T11:18:03.676Z,4.53
2022-08-25T11:20:47.665Z,4.00
2022-08-25T11:23:41.367Z,3.17
2022-08-25T11:26:28.910Z,5.38
2022-08-25T11:29:17.871Z,3.10
2022-08-25T11:31:59.402Z,3.33
2022-08-25T11:34:35.797Z,4.25
2022-08-25T11:37:28.074Z,3.90
2022-08-25T11:40:41.105Z,3.38
2022-08-25T11:43:40.623Z,3.72
2022-08-25T11:46:36.577Z,3.78
2022-08-25T11:49:21.761Z,3.25
2022-08-25T11:52:03.119Z,3.85
2022-08-25T11:54:42.295Z,3.72
2022-08-25T11:57:29.432Z,3.90
2022-08-25T12:00:31.052Z,4.65
2022-08-25T12:03:04.547Z,4.25
2022-08-25T12:05:41.756Z,3.83
2022-08-25T12:08:27.987Z,4.47
2022-08-25T12:11:11.215Z,4.05
2022-08-25T12:13:49.286Z,4.32
2022-08-25T12:16:44.044Z,4.05
2022-08-25T12:19:30.859Z,4.35
2022-08-25T12:22:22.725Z,4.47
2022-08-25T12:25:11.703Z,4.10
2022-08-25T12:28:09.256Z,4.00
2022-08-25T12:30:52.814Z,5.40
2022-08-25T12:33:39.358Z,6.10
2022-08-25T12:36:29.457Z,3.45
2022-08-25T12:39:17.433Z,4.97
2022-08-25T12:42:06.794Z,5.13
2022-08-25T12:44:48.091Z,4.72
2022-08-25T12:47:23.500Z,4.87
2022-08-25T12:50:14.709Z,5.00
2022-08-25T12:52:49.664Z,4.18
2022-08-25T12:55:29.179Z,4.10
2022-08-25T12:58:04.983Z,3.75
2022-08-25T13:01:04.042Z,5.30
2022-08-25T13:03:54.234Z,21.38
2022-08-25T13:06:31.952Z,17.42
2022-08-25T13:09:33.775Z,23.25
2022-08-25T13:12:24.864Z,20.13
2022-08-25T13:14:57.567Z,15.00
2022-08-25T13:17:35.967Z,18.23
2022-08-25T13:20:23.252Z,13.40
2022-08-25T13:23:03.972Z,17.30
2022-08-25T13:25:38.402Z,11.98
2022-08-25T13:28:27.184Z,9.90
2022-08-25T13:31:01.917Z,12.85
2022-08-25T13:33:32.093Z,10.40
2022-08-25T13:36:20.214Z,13.07
2022-08-25T13:38:50.457Z,8.68
2022-08-25T13:41:29.400Z,13.30
2022-08-25T13:44:01.848Z,10.10
2022-08-25T13:46:35.724Z,8.45
2022-08-25T13:49:15.581Z,11.70
2022-08-25T13:51:56.546Z,11.77
2022-08-25T13:54:39.150Z,9.93
2022-08-25T13:57:18.500Z,7.95
2022-08-25T13:59:52.195Z,8.38
2022-08-25T14:02:44.374Z,8.25
2022-08-25T14:05:32.424Z,7.60
2022-08-25T14:08:23.389Z,9.90
2022-08-25T14:11:26.381Z,6.32
2022-08-25T14:14:23.699Z,7.50
2022-08-25T14:16:59.611Z,7.25
2022-08-25T14:19:29.121Z,6.82
2022-08-25T14:22:03.027Z,7.75
2022-08-25T14:24:39.289Z,6.75
2022-08-25T14:27:15.442Z,8.05
2022-08-25T14:29:52.924Z,6.43
2022-08-25T14:32:29.062Z,8.35
2022-08-25T14:35:09.795Z,6.05
2022-08-25T14:37:44.517Z,6.45
2022-08-25T14:40:20.368Z,6.20
2022-08-25T14:42:56.320Z,5.45
2022-08-25T14:45:35.705Z,6.72
2022-08-25T14:48:22.014Z,6.40
2022-08-25T14:51:01.336Z,6.03
2022-08-25T14:53:41.331Z,6.97
2022-08-25T14:56:15.516Z,5.75
2022-08-25T14:58:54.347Z,6.38
2022-08-25T15:01:30.102Z,5.55
2022-08-25T15:04:05.296Z,7.50
2022-08-25T15:06:37.815Z,5.97
2022-08-25T15:09:21.756Z,5.28
2022-08-25T15:11:59.934Z,5.93
2022-08-25T15:14:33.266Z,6.22
2022-08-25T15:17:09.915Z,5.22
2022-08-25T15:19:43.273Z,5.88
2022-08-25T15:22:16.606Z,6.72
2022-08-25T15:24:58.286Z,6.50
2022-08-25T15:27:38.131Z,5.30
2022-08-25T15:30:13.571Z,6.82
2022-08-25T15:32:52.390Z,5.63
2022-08-25T15:35:34.379Z,8.38
2022-08-25T15:38:05.694Z,6.45
2022-08-25T15:40:38.079Z,7.30
2022-08-25T15:43:09.831Z,5.53
2022-08-25T15:45:46.367Z,6.30
2022-08-25T15:48:22.871Z,6.43
2022-08-25T15:51:06.092Z,5.68
2022-08-25T15:53:40.018Z,5.55
2022-08-25T15:59:08.595Z,7.95
2022-08-25T16:01:47.306Z,7.85
2022-08-25T16:04:18.816Z,5.60
2022-08-25T16:06:47.192Z,5.60
2022-08-25T16:09:24.775Z,5.57
2022-08-25T16:12:02.660Z,5.78
2022-08-25T16:14:37.887Z,5.72
2022-08-25T16:17:09.602Z,4.73
2022-08-25T16:19:44.452Z,7.25
2022-08-25T16:22:18.406Z,6.05
2022-08-25T16:24:52.540Z,8.80
2022-08-25T16:27:38.871Z,6.35
2022-08-25T16:30:17.563Z,7.13
2022-08-25T16:32:48.680Z,6.28
2022-08-25T16:35:34.326Z,6.28
2022-08-25T16:38:06.827Z,5.43
2022-08-25T16:40:42.141Z,5.72
2022-08-25T16:43:10.949Z,6.90
2022-08-25T16:45:49.353Z,7.13
2022-08-25T16:48:21.598Z,6.47
2022-08-25T16:50:52.814Z,5.22
2022-08-25T16:53:40.266Z,5.05
2022-08-25T16:56:15.801Z,6.50
2022-08-25T16:58:52.511Z,5.45
2022-08-25T17:01:25.294Z,4.70
2022-08-25T17:03:58.955Z,4.63
2022-08-25T17:06:36.789Z,5.30
2022-08-25T17:09:08.268Z,5.40
2022-08-25T17:11:44.368Z,4.78
2022-08-25T17:14:18.499Z,6.15
2022-08-25T17:16:51.341Z,6.13
2022-08-25T17:19:25.951Z,7.13
2022-08-25T17:22:00.133Z,5.40
2022-08-25T17:24:33.419Z,6.80
2022-08-25T17:29:40.392Z,4.97
2022-08-25T17:32:17.849Z,5.25
2022-08-25T17:34:52.043Z,5.85
2022-08-25T17:37:25.347Z,5.70
2022-08-25T17:40:02.557Z,6.07
2022-08-25T17:42:34.110Z,4.97
2022-08-25T17:45:06.947Z,5.22
2022-08-25T17:47:36.986Z,5.55
2022-08-25T17:50:18.749Z,5.93
2022-08-25T17:52:49.233Z,4.93
2022-08-25T17:55:21.702Z,4.15
2022-08-25T17:57:54.038Z,6.07
2022-08-25T18:00:23.830Z,4.72
2022-08-25T18:02:51.408Z,5.80
2022-08-25T18:05:21.499Z,5.22
2022-08-25T18:07:57.091Z,5.97
2022-08-25T18:10:26.211Z,5.15
2022-08-25T18:13:02.058Z,6.25
2022-08-25T18:15:30.788Z,5.75
2022-08-25T18:18:04.561Z,5.63
2022-08-25T18:20:42.750Z,5.30
2022-08-25T18:23:14.706Z,4.97
2022-08-25T18:25:51.593Z,5.85
2022-08-25T18:28:30.024Z,4.53
2022-08-25T18:31:01.874Z,4.60
2022-08-25T18:33:41.673Z,4.80
2022-08-25T18:36:13.284Z,4.97
2022-08-25T18:39:04.728Z,5.00
2022-08-25T18:41:40.473Z,4.35
2022-08-25T18:44:15.598Z,4.55
2022-08-25T18:46:48.856Z,4.95
2022-08-25T18:51:57.381Z,5.90
2022-08-25T18:54:32.695Z,4.72
2022-08-25T18:57:08.804Z,5.50
2022-08-25T18:59:39.493Z,5.43
2022-08-25T19:02:10.827Z,5.03
2022-08-25T19:04:46.410Z,5.55
2022-08-25T19:07:19.884Z,4.80
2022-08-25T19:09:52.296Z,5.10
2022-08-25T19:12:25.889Z,4.93
2022-08-25T19:15:01.004Z,6.38
2022-08-25T19:17:37.433Z,5.32
2022-08-25T19:20:11.270Z,4.68
2022-08-25T19:22:42.310Z,4.22
2022-08-25T19:25:21.060Z,4.88
2022-08-25T19:27:51.928Z,5.65
2022-08-25T19:30:26.369Z,5.97
2022-08-25T19:32:56.899Z,5.35
2022-08-25T19:35:37.690Z,4.45
2022-08-25T19:38:33.411Z,4.53
2022-08-25T19:41:10.476Z,3.55
2022-08-25T19:43:55.457Z,4.07
2022-08-25T19:46:42.144Z,4.68
2022-08-25T19:49:17.195Z,3.95
2022-08-25T19:51:52.931Z,4.68
2022-08-25T19:54:30.709Z,6.15
2022-08-25T19:57:07.905Z,4.95
2022-08-25T19:59:47.212Z,5.82
2022-08-25T20:02:25.031Z,4.78
2022-08-25T20:04:55.733Z,5.80
2022-08-25T20:07:28.704Z,5.25
2022-08-25T20:10:00.659Z,5.13
2022-08-25T20:12:32.935Z,5.15
2022-08-25T20:15:09.458Z,5.68
2022-08-25T20:17:37.671Z,4.20
2022-08-25T20:20:19.634Z,5.15
2022-08-25T20:22:49.497Z,5.13
2022-08-25T20:25:26.385Z,5.28
2022-08-25T20:27:58.599Z,4.90
2022-08-25T20:30:30.585Z,3.75
2022-08-25T20:33:10.975Z,5.43
2022-08-25T20:35:50.742Z,4.20
2022-08-25T20:38:24.633Z,4.35
2022-08-25T20:41:01.006Z,5.00
2022-08-25T20:43:34.737Z,5.63
2022-08-25T20:46:10.697Z,5.47
2022-08-25T20:48:40.931Z,5.22
2022-08-25T20:51:18.752Z,4.63
2022-08-25T20:53:51.853Z,5.25
2022-08-25T20:56:30.594Z,4.95
2022-08-25T20:59:04.092Z,4.88
2022-08-25T21:01:43.791Z,4.00
2022-08-25T21:04:15.066Z,4.93
2022-08-25T21:06:44.513Z,4.75
2022-08-25T21:09:20.191Z,4.65
2022-08-25T21:11:55.311Z,3.33
2022-08-25T21:14:28.420Z,4.88
2022-08-25T21:16:58.887Z,5.38
2022-08-25T21:19:31.619Z,5.13
2022-08-25T21:22:10.850Z,4.10
2022-08-25T21:24:39.176Z,4.93
2022-08-25T21:27:09.358Z,4.72
2022-08-25T21:29:44.358Z,4.32
2022-08-25T21:32:15.334Z,4.75
2022-08-25T21:34:45.861Z,5.22
2022-08-25T21:37:17.927Z,3.83
2022-08-25T21:39:45.705Z,4.65
2022-08-25T21:42:18.600Z,3.75
2022-08-25T21:44:46.000Z,4.38
2022-08-25T21:47:20.887Z,3.90
2022-08-25T21:49:57.606Z,3.92
2022-08-25T21:52:30.637Z,4.88
2022-08-25T21:55:02.270Z,4.53
2022-08-25T21:57:32.825Z,3.92
2022-08-25T22:00:08.154Z,5.53
2022-08-25T22:02:45.947Z,4.20
2022-08-25T22:05:17.054Z,5.10
2022-08-25T22:07:52.230Z,4.88
2022-08-25T22:10:23.774Z,4.55
2022-08-25T22:12:56.330Z,5.45
2022-08-25T22:15:27.545Z,5.15
2022-08-25T22:20:34.479Z,4.63
2022-08-25T22:23:20.246Z,4.45
2022-08-25T22:26:00.083Z,5.82
2022-08-25T22:28:34.102Z,4.82
2022-08-25T22:31:09.263Z,4.30
2022-08-25T22:33:46.392Z,5.07
2022-08-25T22:36:35.779Z,4.97
2022-08-25T22:39:17.394Z,5.13
2022-08-25T22:41:53.940Z,4.60
2022-08-25T22:44:23.462Z,4.45
2022-08-25T22:46:59.403Z,4.13
2022-08-25T22:49:35.511Z,5.38
2022-08-25T22:52:12.892Z,5.78
2022-08-25T22:54:42.802Z,5.47
2022-08-25T22:57:16.806Z,3.13
2022-08-25T22:59:56.613Z,4.57
2022-08-25T23:02:30.590Z,4.55
2022-08-25T23:05:00.890Z,3.90
2022-08-25T23:07:37.709Z,4.18
2022-08-25T23:10:12.985Z,4.15
2022-08-25T23:12:44.193Z,4.50
2022-08-25T23:15:16.989Z,4.43
2022-08-25T23:17:50.605Z,4.93
2022-08-25T23:20:56.447Z,5.35
2022-08-25T23:23:29.587Z,4.78
2022-08-25T23:26:01.972Z,4.88
2022-08-25T23:28:39.174Z,5.07
2022-08-25T23:31:11.859Z,4.47
2022-08-25T23:33:45.887Z,5.97
2022-08-25T23:36:17.501Z,5.28
2022-08-25T23:38:54.399Z,4.78
2022-08-25T23:41:29.951Z,3.05
2022-08-25T23:44:05.584Z,5.75
2022-08-25T23:46:44.906Z,5.85
2022-08-25T23:49:18.442Z,5.07
2022-08-25T23:51:52.761Z,5.10
2022-08-25T23:54:29.029Z,4.60
2022-08-25T23:57:00.485Z,4.78
2022-08-25T23:59:42.080Z,5.18
